createdAt,value
2022-12-23T00:00:34.879Z,101964.22
2022-12-23T00:05:47.464Z,101967.22
2022-12-23T00:16:15.118Z,101961.94
2022-12-23T00:21:27.522Z,101959.09
2022-12-23T00:26:34.612Z,101978.81
2022-12-23T00:31:41.022Z,101981.53
2022-12-23T00:36:45.921Z,101972.72
2022-12-23T00:42:16.554Z,101978.22
2022-12-23T00:47:39.847Z,101969.94
2022-12-23T00:52:48.551Z,101961.47
2022-12-23T00:58:00.097Z,101967.22
2022-12-23T01:03:22.881Z,101968.81
2022-12-23T01:08:31.476Z,101976.50
2022-12-23T01:18:25.046Z,101969.59
2022-12-23T01:23:26.910Z,101970.94
2022-12-23T01:28:31.220Z,101965.97
2022-12-23T01:33:34.069Z,101956.09
2022-12-23T01:38:36.005Z,101962.66
2022-12-23T01:43:52.145Z,101970.91
2022-12-23T01:48:57.586Z,101970.91
2022-12-23T01:54:03.807Z,101977.22
2022-12-23T01:59:10.184Z,101988.44
2022-12-23T02:05:13.440Z,101996.72
2022-12-23T02:16:21.244Z,101996.22
2022-12-23T02:21:54.914Z,102003.06
2022-12-23T02:27:13.777Z,101992.06
2022-12-23T02:32:39.856Z,101990.94
2022-12-23T02:38:11.601Z,101993.38
2022-12-23T02:43:31.126Z,101990.63
2022-12-23T02:48:51.546Z,101997.75
2022-12-23T02:53:59.277Z,101993.94
2022-12-23T02:59:11.496Z,101991.19
2022-12-23T03:04:17.034Z,101994.75
2022-12-23T03:09:58.498Z,101979.13
2022-12-23T03:15:43.035Z,101997.25
2022-12-23T03:20:57.454Z,102011.50
2022-12-23T03:26:18.304Z,102007.69
2022-12-23T03:31:32.340Z,102013.72
2022-12-23T03:36:53.975Z,102008.81
2022-12-23T03:42:16.997Z,102003.03
2022-12-23T03:47:38.475Z,102007.94
2022-12-23T03:53:02.304Z,102013.38
2022-12-23T03:58:07.052Z,102005.38
2022-12-23T04:03:36.246Z,102004.25
2022-12-23T04:08:43.619Z,102000.91
2022-12-23T04:18:29.291Z,102005.47
2022-12-23T04:23:32.004Z,101999.69
2022-12-23T04:28:34.889Z,102003.50
2022-12-23T04:33:37.978Z,101991.97
2022-12-23T04:38:40.910Z,101988.06
2022-12-23T04:43:45.437Z,101999.56
2022-12-23T04:48:55.192Z,101992.94
2022-12-23T04:53:57.164Z,101994.28
2022-12-23T04:59:01.935Z,101985.75
2022-12-23T05:04:15.457Z,101975.88
2022-12-23T05:09:17.489Z,101973.13
2022-12-23T05:14:25.451Z,101962.69
2022-12-23T05:19:33.711Z,101965.94
2022-12-23T05:24:44.493Z,101965.38
2022-12-23T05:29:51.988Z,101956.34
2022-12-23T05:34:59.085Z,101964.81
2022-12-23T05:40:03.784Z,101964.00
2022-12-23T05:45:12.753Z,101948.91
2022-12-23T05:50:24.962Z,101944.75
2022-12-23T05:55:33.164Z,101947.72
2022-12-23T06:00:39.516Z,101963.03
2022-12-23T06:05:45.724Z,101972.31
2022-12-23T06:18:31.861Z,101956.72
2022-12-23T06:23:33.901Z,101965.25
2022-12-23T06:28:35.759Z,101965.25
2022-12-23T06:33:37.665Z,101962.50
2022-12-23T06:38:39.635Z,101970.16
2022-12-23T06:43:41.866Z,101977.81
2022-12-23T06:48:45.782Z,101966.84
2022-12-23T06:53:53.909Z,101973.97
2022-12-23T06:58:55.827Z,101972.91
2022-12-23T07:03:57.685Z,101970.16
2022-12-23T07:08:59.526Z,101966.34
2022-12-23T07:14:01.477Z,101961.44
2022-12-23T07:19:03.396Z,101966.69
2022-12-23T07:24:06.068Z,101969.47
2022-12-23T07:29:07.899Z,101977.75
2022-12-23T07:34:10.110Z,101972.56
2022-12-23T07:39:11.901Z,101974.53
2022-12-23T07:44:14.119Z,101972.66
2022-12-23T07:49:15.863Z,101979.28
2022-12-23T07:54:17.792Z,101978.84
2022-12-23T07:59:19.690Z,101986.03
2022-12-23T08:04:21.838Z,101978.81
2022-12-23T08:09:23.573Z,101972.72
2022-12-23T08:14:25.839Z,101983.09
2022-12-23T08:19:29.128Z,101977.88
2022-12-23T08:24:35.601Z,101981.16
2022-12-23T08:29:41.712Z,101982.41
2022-12-23T08:34:46.217Z,101986.78
2022-12-23T08:39:48.959Z,101984.50
2022-12-23T08:44:50.807Z,102004.66
2022-12-23T08:55:11.525Z,102006.47
2022-12-23T09:00:14.440Z,102010.06
2022-12-23T09:05:17.629Z,102000.09
2022-12-23T09:18:40.356Z,101993.19
2022-12-23T09:23:56.848Z,102009.28
2022-12-23T09:29:05.072Z,102009.13
2022-12-23T09:34:13.842Z,102019.75
2022-12-23T09:39:18.583Z,102005.78
2022-12-23T09:44:47.047Z,102006.66
2022-12-23T09:49:59.272Z,102000.75
2022-12-23T09:55:18.554Z,101994.84
2022-12-23T10:00:26.248Z,102003.22
2022-12-23T10:06:00.378Z,102016.78
2022-12-23T10:16:38.646Z,101982.56
2022-12-23T10:21:49.984Z,101982.41
2022-12-23T10:27:24.417Z,101976.34
2022-12-23T10:32:53.125Z,101981.25
2022-12-23T10:38:13.449Z,101975.84
2022-12-23T10:43:30.450Z,101975.19
2022-12-23T10:48:40.637Z,101964.72
2022-12-23T10:54:23.006Z,101950.59
2022-12-23T10:59:28.484Z,101941.09
2022-12-23T11:04:40.518Z,101936.78
2022-12-23T11:09:52.256Z,101926.13
2022-12-23T11:14:59.481Z,101928.72
2022-12-23T11:25:46.740Z,101922.63
2022-12-23T11:31:36.765Z,101919.69
2022-12-23T11:36:42.819Z,101908.16
2022-12-23T11:42:04.463Z,101902.88
2022-12-23T11:47:27.805Z,101891.91
2022-12-23T11:52:35.924Z,101889.66
2022-12-23T11:57:50.791Z,101885.38
2022-12-23T12:08:30.295Z,101882.34
2022-12-23T12:18:28.551Z,101858.84
2022-12-23T12:23:44.000Z,101852.16
2022-12-23T12:28:50.820Z,101848.69
2022-12-23T12:34:28.640Z,101837.41
2022-12-23T12:39:51.489Z,101829.44
2022-12-23T12:45:10.958Z,101835.06
2022-12-23T12:50:18.418Z,101821.66
2022-12-23T12:55:29.825Z,101821.28
2022-12-23T13:00:48.336Z,101813.16
2022-12-23T13:06:00.424Z,101816.22
2022-12-23T13:11:12.990Z,101811.72
2022-12-23T13:16:28.573Z,101806.88
2022-12-23T13:21:47.565Z,101799.53
2022-12-23T13:27:19.434Z,101803.13
2022-12-23T13:32:59.640Z,101776.34
2022-12-23T13:38:35.713Z,101769.88
2022-12-23T13:43:49.364Z,101772.63
2022-12-23T13:49:17.739Z,101769.16
2022-12-23T13:54:39.149Z,101762.44
2022-12-23T13:59:44.925Z,101761.34
2022-12-23T14:05:00.214Z,101749.72
2022-12-23T14:18:47.926Z,101755.22
2022-12-23T14:23:59.584Z,101752.44
2022-12-23T14:29:48.013Z,101750.00
2022-12-23T14:35:16.660Z,101747.53
2022-12-23T14:40:48.035Z,101742.63
2022-12-23T14:51:41.317Z,101741.22
2022-12-23T14:57:00.932Z,101721.44
2022-12-23T15:02:39.006Z,101720.31
2022-12-23T15:07:47.657Z,101725.44
2022-12-23T15:12:58.300Z,101726.19
2022-12-23T15:18:12.020Z,101729.81
2022-12-23T15:25:39.602Z,101733.13
2022-12-23T15:30:49.522Z,101733.13
2022-12-23T15:35:52.266Z,101740.97
2022-12-23T15:41:06.586Z,101747.44
2022-12-23T15:46:16.900Z,101746.09
2022-12-23T15:56:59.165Z,101743.94
2022-12-23T16:08:13.992Z,101734.84
2022-12-23T16:18:32.872Z,101748.94
2022-12-23T16:23:39.292Z,101757.13
2022-12-23T16:28:47.979Z,101758.47
2022-12-23T16:34:00.179Z,101757.06
2022-12-23T16:39:09.741Z,101755.75
2022-12-23T16:44:14.339Z,101765.38
2022-12-23T16:49:33.845Z,101772.25
2022-12-23T16:54:43.061Z,101775.34
2022-12-23T16:59:47.789Z,101774.72
2022-12-23T17:04:53.324Z,101767.72
2022-12-23T17:09:59.251Z,101770.38
2022-12-23T17:15:04.791Z,101774.13
2022-12-23T17:25:22.911Z,101795.16
2022-12-23T17:30:32.110Z,101810.00
2022-12-23T17:35:40.937Z,101818.44
2022-12-23T17:40:45.482Z,101810.31
2022-12-23T17:45:52.388Z,101809.06
2022-12-23T17:51:00.673Z,101807.75
2022-12-23T17:56:13.694Z,101809.25
2022-12-23T18:01:35.325Z,101817.63
2022-12-23T18:06:42.969Z,101806.41
2022-12-23T18:11:50.316Z,101816.41
2022-12-23T18:16:58.585Z,101818.44
2022-12-23T18:22:02.523Z,101824.31
2022-12-23T18:27:15.996Z,101826.28
2022-12-23T18:32:28.804Z,101833.28
2022-12-23T18:37:31.657Z,101835.81
2022-12-23T18:42:35.460Z,101835.59
2022-12-23T18:47:38.312Z,101831.25
2022-12-23T18:52:43.023Z,101827.72
2022-12-23T18:57:45.199Z,101826.38
2022-12-23T19:02:50.588Z,101833.00
2022-12-23T19:07:57.836Z,101826.16
2022-12-23T19:13:00.781Z,101840.81
2022-12-23T19:18:02.856Z,101857.41
2022-12-23T19:23:11.710Z,101853.06
2022-12-23T19:28:18.389Z,101848.72
2022-12-23T19:33:22.044Z,101843.78
2022-12-23T19:38:29.079Z,101849.06
2022-12-23T19:43:41.301Z,101857.91
2022-12-23T19:48:57.626Z,101857.91
2022-12-23T19:54:07.360Z,101860.13
2022-12-23T19:59:12.398Z,101862.38
2022-12-23T20:04:16.610Z,101860.19
2022-12-23T20:09:20.703Z,101858.00
2022-12-23T20:18:33.324Z,101860.88
2022-12-23T20:23:40.176Z,101850.41
2022-12-23T20:28:45.398Z,101854.53
2022-12-23T20:33:50.056Z,101852.59
2022-12-23T20:38:55.190Z,101843.78
2022-12-23T20:49:27.686Z,101844.72
2022-12-23T20:54:33.747Z,101836.47
2022-12-23T20:59:40.715Z,101851.38
2022-12-23T21:04:44.828Z,101849.19
2022-12-23T21:09:49.436Z,101861.63
2022-12-23T21:14:52.439Z,101874.88
2022-12-23T21:21:36.470Z,101871.03
2022-12-23T21:26:38.691Z,101862.22
2022-12-23T21:31:41.761Z,101871.91
2022-12-23T21:36:44.068Z,101871.66
2022-12-23T21:41:46.112Z,101862.28
2022-12-23T21:46:51.055Z,101857.34
2022-12-23T21:51:53.378Z,101853.22
2022-12-23T21:56:55.394Z,101849.94
2022-12-23T22:01:57.367Z,101858.47
2022-12-23T22:06:59.496Z,101864.84
2022-12-23T22:12:06.203Z,101865.94
2022-12-23T22:17:13.217Z,101870.63
2022-12-23T22:22:18.835Z,101880.00
2022-12-23T22:27:24.387Z,101877.28
2022-12-23T22:32:39.050Z,101874.00
2022-12-23T22:37:48.220Z,101877.03
2022-12-23T22:42:50.946Z,101868.22
2022-12-23T22:48:02.686Z,101884.75
2022-12-23T22:53:06.236Z,101879.81
2022-12-23T22:58:12.850Z,101871.84
2022-12-23T23:03:19.021Z,101871.31
2022-12-23T23:08:27.427Z,101861.38
2022-12-23T23:18:33.683Z,101844.34
2022-12-23T23:23:44.782Z,101854.28
2022-12-23T23:28:50.628Z,101853.75
2022-12-23T23:33:52.498Z,101840.81
2022-12-23T23:38:54.192Z,101833.97
2022-12-23T23:43:56.006Z,101837.81
2022-12-23T23:48:58.132Z,101825.19
2022-12-23T23:54:01.687Z,101818.59
2022-12-23T23:59:03.658Z,101824.13
